createdAt,value
2019-05-19T00:01:25.964Z,30.33
2019-05-19T00:03:55.676Z,29.47
2019-05-19T00:06:25.186Z,27.97
2019-05-19T00:08:55.607Z,30.03
2019-05-19T00:11:27.065Z,31.07
2019-05-19T00:13:57.483Z,30.10
2019-05-19T00:16:28.025Z,27.40
2019-05-19T00:18:58.501Z,32.20
2019-05-19T00:21:28.976Z,31.67
2019-05-19T00:23:59.983Z,31.60
2019-05-19T00:26:30.542Z,32.87
2019-05-19T00:29:00.970Z,30.03
2019-05-19T00:31:31.396Z,31.87
2019-05-19T00:34:01.821Z,32.70
2019-05-19T00:36:31.331Z,31.13
2019-05-19T00:39:00.840Z,31.80
2019-05-19T00:41:30.446Z,28.67
2019-05-19T00:43:59.950Z,30.40
2019-05-19T00:46:29.443Z,30.67
2019-05-19T00:48:59.049Z,29.23
2019-05-19T00:51:28.678Z,31.17
2019-05-19T00:53:59.434Z,34.47
2019-05-19T00:56:29.041Z,31.77
2019-05-19T00:58:59.026Z,32.00
2019-05-19T01:01:28.538Z,31.90
2019-05-19T01:03:58.145Z,30.93
2019-05-19T01:06:27.751Z,33.37
2019-05-19T01:08:57.458Z,32.40
2019-05-19T01:11:26.965Z,31.97
2019-05-19T01:13:56.578Z,34.50
2019-05-19T01:16:26.178Z,33.67
2019-05-19T01:18:55.688Z,32.73
2019-05-19T01:21:25.196Z,33.33
2019-05-19T01:23:54.798Z,34.60
2019-05-19T01:26:24.357Z,34.43
2019-05-19T01:28:54.833Z,34.70
2019-05-19T01:31:24.542Z,35.10
2019-05-19T01:33:54.154Z,33.70
2019-05-19T01:36:23.658Z,34.13
2019-05-19T01:38:53.251Z,32.83
2019-05-19T01:41:22.799Z,30.07
2019-05-19T01:43:52.280Z,35.13
2019-05-19T01:46:21.885Z,34.20
2019-05-19T01:48:52.320Z,33.53
2019-05-19T01:51:22.837Z,33.67
2019-05-19T01:53:56.551Z,33.43
2019-05-19T01:56:27.224Z,32.47
2019-05-19T01:58:57.704Z,34.50
2019-05-19T02:01:28.144Z,30.93
2019-05-19T02:03:58.761Z,33.13
2019-05-19T02:06:29.191Z,33.37
2019-05-19T02:08:59.615Z,32.07
2019-05-19T02:11:30.175Z,32.23
2019-05-19T02:14:00.571Z,33.47
2019-05-19T02:16:31.000Z,31.20
2019-05-19T02:19:01.430Z,33.03
2019-05-19T02:21:32.876Z,31.47
2019-05-19T02:24:03.333Z,30.73
2019-05-19T02:26:33.734Z,31.40
2019-05-19T02:29:04.204Z,31.67
2019-05-19T02:31:34.687Z,31.67
2019-05-19T02:34:05.133Z,33.00
2019-05-19T02:36:34.710Z,31.83
2019-05-19T02:39:05.732Z,34.90
2019-05-19T02:41:36.706Z,32.20
2019-05-19T02:44:06.311Z,32.77
2019-05-19T02:46:36.027Z,31.80
2019-05-19T02:49:06.349Z,35.40
2019-05-19T02:51:36.269Z,34.03
2019-05-19T02:54:06.471Z,35.37
2019-05-19T02:56:36.425Z,35.00
2019-05-19T02:59:06.578Z,36.10
2019-05-19T03:01:37.790Z,35.60
2019-05-19T03:04:07.379Z,34.03
2019-05-19T03:06:36.979Z,35.77
2019-05-19T03:09:06.694Z,37.63
2019-05-19T03:11:36.204Z,36.17
2019-05-19T03:14:05.714Z,37.73
2019-05-19T03:16:35.308Z,38.17
2019-05-19T03:19:04.817Z,36.73
2019-05-19T03:21:34.324Z,38.23
2019-05-19T03:24:04.749Z,36.17
2019-05-19T03:26:35.170Z,37.87
2019-05-19T03:29:05.710Z,36.13
2019-05-19T03:31:43.106Z,36.37
2019-05-19T03:34:14.284Z,34.97
2019-05-19T03:36:44.768Z,36.07
2019-05-19T03:39:15.196Z,35.20
2019-05-19T03:41:46.649Z,34.00
2019-05-19T03:44:17.068Z,33.27
2019-05-19T03:46:47.496Z,36.23
2019-05-19T03:49:17.921Z,33.37
2019-05-19T03:51:48.458Z,34.80
2019-05-19T03:54:18.962Z,35.93
2019-05-19T03:56:49.822Z,33.37
2019-05-19T03:59:20.348Z,33.17
2019-05-19T04:01:50.822Z,33.83
2019-05-19T04:04:21.317Z,31.97
2019-05-19T04:06:51.732Z,33.07
2019-05-19T04:09:22.158Z,36.63
2019-05-19T04:11:52.586Z,34.17
2019-05-19T04:14:23.011Z,33.67
2019-05-19T04:16:53.444Z,33.10
2019-05-19T04:19:23.866Z,33.80
2019-05-19T04:21:54.303Z,34.03
2019-05-19T04:24:24.720Z,33.27
2019-05-19T04:26:55.158Z,34.10
2019-05-19T04:29:25.780Z,32.83
2019-05-19T04:31:56.410Z,31.67
2019-05-19T04:34:26.884Z,32.30
2019-05-19T04:36:57.573Z,33.17
2019-05-19T04:39:28.204Z,30.60
2019-05-19T04:41:58.836Z,31.17
2019-05-19T04:44:29.268Z,31.47
2019-05-19T04:46:59.804Z,30.90
2019-05-19T04:49:30.321Z,32.83
2019-05-19T04:52:06.584Z,31.83
2019-05-19T04:54:32.827Z,34.00
2019-05-19T04:57:03.553Z,33.53
2019-05-19T04:59:33.979Z,32.60
2019-05-19T05:02:04.403Z,33.70
2019-05-19T05:04:35.078Z,34.20
2019-05-19T05:07:05.563Z,34.40
2019-05-19T05:09:37.220Z,34.23
2019-05-19T05:12:07.650Z,32.63
2019-05-19T05:14:38.094Z,33.00
2019-05-19T05:17:08.501Z,32.13
2019-05-19T05:19:39.033Z,32.77
2019-05-19T05:22:21.196Z,32.17
2019-05-19T05:24:41.526Z,31.90
2019-05-19T05:27:11.961Z,30.00
2019-05-19T05:29:42.479Z,30.07
2019-05-19T05:32:13.007Z,31.70
2019-05-19T05:34:43.434Z,29.87
2019-05-19T05:37:13.907Z,29.50
2019-05-19T05:39:44.396Z,28.77
2019-05-19T05:42:14.819Z,27.83
2019-05-19T05:44:45.348Z,28.73
2019-05-19T05:47:15.775Z,27.77
2019-05-19T05:49:50.170Z,26.97
2019-05-19T05:52:19.396Z,26.57
2019-05-19T05:54:49.849Z,25.60
2019-05-19T05:57:20.543Z,25.33
2019-05-19T05:59:50.982Z,23.10
2019-05-19T06:02:21.408Z,26.17
2019-05-19T06:04:51.834Z,25.30
2019-05-19T06:07:22.412Z,22.97
2019-05-19T06:09:52.900Z,23.03
2019-05-19T06:12:23.320Z,23.63
2019-05-19T06:14:53.747Z,22.43
2019-05-19T06:17:24.231Z,21.07
2019-05-19T06:19:54.002Z,21.67
2019-05-19T06:22:23.481Z,21.63
2019-05-19T06:24:52.995Z,22.10
2019-05-19T06:27:23.634Z,20.70
2019-05-19T06:29:54.262Z,20.83
2019-05-19T06:32:31.408Z,19.23
2019-05-19T06:35:01.946Z,19.77
2019-05-19T06:37:32.505Z,17.60
2019-05-19T06:40:04.163Z,18.13
2019-05-19T06:42:34.596Z,18.00
2019-05-19T06:45:05.427Z,16.93
2019-05-19T06:47:35.895Z,16.87
2019-05-19T06:50:07.020Z,16.63
2019-05-19T06:52:37.632Z,16.23
2019-05-19T06:55:09.462Z,17.27
2019-05-19T06:57:40.212Z,15.70
2019-05-19T07:00:11.208Z,17.20
2019-05-19T07:02:41.767Z,16.13
2019-05-19T07:05:12.542Z,16.07
2019-05-19T07:07:43.179Z,17.63
2019-05-19T07:10:14.350Z,18.07
2019-05-19T07:12:44.835Z,16.67
2019-05-19T07:15:15.772Z,17.23
2019-05-19T07:17:46.201Z,18.43
2019-05-19T07:20:18.934Z,15.30
2019-05-19T07:22:49.415Z,18.77
2019-05-19T07:25:19.838Z,17.60
2019-05-19T07:27:50.369Z,16.70
2019-05-19T07:30:21.820Z,17.13
2019-05-19T07:32:52.344Z,18.53
2019-05-19T07:35:21.959Z,18.33
2019-05-19T07:37:51.579Z,17.00
2019-05-19T07:40:21.078Z,15.77
2019-05-19T07:42:50.775Z,15.10
2019-05-19T07:45:22.028Z,13.87
2019-05-19T07:47:52.449Z,14.90
2019-05-19T07:50:23.900Z,15.63
2019-05-19T07:52:54.552Z,14.70
2019-05-19T07:55:24.969Z,14.73
2019-05-19T07:57:55.676Z,14.30
2019-05-19T08:00:26.121Z,12.83
2019-05-19T08:02:56.551Z,14.27
2019-05-19T08:05:27.003Z,13.77
2019-05-19T08:07:57.399Z,14.20
2019-05-19T08:10:28.924Z,12.53
2019-05-19T08:12:59.525Z,11.97
2019-05-19T08:15:30.029Z,13.33
2019-05-19T08:18:00.450Z,12.93
2019-05-19T08:20:30.971Z,12.73
2019-05-19T08:23:01.409Z,12.60
2019-05-19T08:25:31.822Z,12.57
2019-05-19T08:28:08.494Z,12.93
2019-05-19T08:30:34.441Z,12.40
2019-05-19T08:33:04.855Z,13.50
2019-05-19T08:35:35.375Z,12.93
2019-05-19T08:38:05.812Z,13.57
2019-05-19T08:40:37.276Z,13.00
2019-05-19T08:43:07.707Z,13.40
2019-05-19T08:45:38.178Z,12.27
2019-05-19T08:48:08.661Z,11.70
2019-05-19T08:50:39.067Z,12.80
2019-05-19T08:53:09.494Z,12.83
2019-05-19T08:55:40.020Z,12.63
2019-05-19T08:58:10.755Z,12.17
2019-05-19T09:00:42.211Z,13.07
2019-05-19T09:03:12.906Z,12.93
2019-05-19T09:05:43.372Z,12.60
2019-05-19T09:08:13.918Z,12.13
2019-05-19T09:10:44.532Z,12.40
2019-05-19T09:13:14.988Z,12.90
2019-05-19T09:15:45.769Z,13.80
2019-05-19T09:18:16.219Z,12.82
2019-05-19T09:20:47.675Z,12.93
2019-05-19T09:23:18.095Z,12.85
2019-05-19T09:25:48.525Z,12.90
2019-05-19T09:28:18.950Z,12.10
2019-05-19T09:30:50.399Z,12.20
2019-05-19T09:33:20.929Z,11.65
2019-05-19T09:35:52.957Z,10.32
2019-05-19T09:38:23.320Z,10.78
2019-05-19T09:40:54.872Z,10.60
2019-05-19T09:43:25.404Z,11.20
2019-05-19T09:45:55.935Z,9.58
2019-05-19T09:48:26.512Z,10.93
2019-05-19T09:50:58.283Z,9.50
2019-05-19T09:53:28.750Z,9.23
2019-05-19T09:55:59.174Z,11.68
2019-05-19T09:58:29.822Z,11.38
2019-05-19T10:01:00.340Z,11.22
2019-05-19T10:03:30.870Z,11.43
2019-05-19T10:06:01.293Z,12.35
2019-05-19T10:08:42.589Z,10.68
2019-05-19T10:11:36.058Z,11.88
2019-05-19T10:14:06.570Z,11.63
2019-05-19T10:16:37.003Z,14.30
2019-05-19T10:19:07.584Z,12.63
2019-05-19T10:21:38.158Z,13.30
2019-05-19T10:24:08.586Z,13.50
2019-05-19T10:26:39.019Z,12.27
2019-05-19T10:29:09.716Z,11.53
2019-05-19T10:31:40.178Z,13.50
2019-05-19T10:34:10.601Z,11.73
2019-05-19T10:36:41.131Z,12.63
2019-05-19T10:39:11.659Z,13.30
2019-05-19T10:41:42.297Z,12.07
2019-05-19T10:44:12.717Z,10.53
2019-05-19T10:46:43.145Z,12.70
2019-05-19T10:49:13.582Z,10.55
2019-05-19T10:51:44.267Z,11.12
2019-05-19T10:54:14.842Z,10.13
2019-05-19T10:56:45.262Z,9.68
2019-05-19T10:59:15.996Z,9.48
2019-05-19T11:01:46.422Z,8.73
2019-05-19T11:04:16.859Z,7.55
2019-05-19T11:06:47.280Z,7.42
2019-05-19T11:09:17.884Z,6.90
2019-05-19T11:11:48.339Z,7.20
2019-05-19T11:14:18.763Z,7.45
2019-05-19T11:16:49.190Z,7.20
2019-05-19T11:19:19.625Z,5.20
2019-05-19T11:21:51.070Z,5.90
2019-05-19T11:24:21.670Z,5.33
2019-05-19T11:26:52.128Z,5.87
2019-05-19T11:29:22.555Z,6.37
2019-05-19T11:31:53.086Z,5.12
2019-05-19T11:34:24.749Z,5.35
2019-05-19T11:36:55.292Z,5.80
2019-05-19T11:39:25.695Z,5.80
2019-05-19T11:41:56.140Z,5.33
2019-05-19T11:44:26.556Z,5.47
2019-05-19T11:46:56.978Z,6.17
2019-05-19T11:49:27.402Z,6.17
2019-05-19T11:51:57.830Z,4.60
2019-05-19T11:54:28.264Z,5.45
2019-05-19T11:56:58.730Z,4.67
2019-05-19T11:59:29.371Z,4.70
2019-05-19T12:01:59.851Z,4.80
2019-05-19T12:04:30.272Z,3.98
2019-05-19T12:07:00.700Z,3.42
2019-05-19T12:09:32.150Z,3.87
2019-05-19T12:12:02.591Z,3.35
2019-05-19T12:14:33.097Z,2.70
2019-05-19T12:17:03.538Z,2.87
2019-05-19T12:19:33.964Z,2.12
2019-05-19T12:22:04.564Z,2.30
2019-05-19T12:24:35.017Z,2.00
2019-05-19T12:27:05.493Z,2.17
2019-05-19T12:29:35.975Z,2.20
2019-05-19T12:32:07.127Z,2.00
2019-05-19T12:34:37.547Z,1.75
2019-05-19T12:37:07.963Z,1.80
2019-05-19T12:39:38.400Z,1.80
2019-05-19T12:42:08.827Z,2.27
2019-05-19T12:44:39.255Z,3.33
2019-05-19T12:47:09.681Z,3.52
2019-05-19T12:49:40.108Z,3.10
2019-05-19T12:52:10.547Z,3.40
2019-05-19T12:54:40.982Z,3.00
2019-05-19T12:57:11.389Z,3.35
2019-05-19T12:59:41.858Z,2.83
2019-05-19T13:02:12.344Z,3.05
2019-05-19T13:04:42.978Z,3.33
2019-05-19T13:07:13.404Z,3.60
2019-05-19T13:09:43.941Z,3.60
2019-05-19T13:12:14.372Z,4.12
2019-05-19T13:14:46.323Z,4.25
2019-05-19T13:17:16.754Z,3.83
2019-05-19T13:19:48.421Z,4.00
2019-05-19T13:22:18.844Z,3.33
2019-05-19T13:24:49.262Z,3.22
2019-05-19T13:27:19.691Z,3.58
2019-05-19T13:29:50.258Z,3.62
2019-05-19T13:32:20.749Z,3.40
2019-05-19T13:34:51.164Z,3.45
2019-05-19T13:37:21.599Z,2.60
2019-05-19T13:39:52.040Z,3.27
2019-05-19T13:42:22.663Z,3.00
2019-05-19T13:44:53.084Z,2.80
2019-05-19T13:47:23.513Z,2.47
2019-05-19T13:49:54.036Z,2.62
2019-05-19T13:52:24.468Z,2.30
2019-05-19T13:54:54.914Z,2.42
2019-05-19T13:57:25.394Z,2.30
2019-05-19T13:59:56.024Z,2.52
2019-05-19T14:02:26.530Z,2.50
2019-05-19T14:04:58.244Z,3.10
2019-05-19T14:07:28.669Z,3.58
2019-05-19T14:09:59.096Z,3.30
2019-05-19T14:12:29.525Z,3.60
2019-05-19T14:14:59.951Z,3.98
2019-05-19T14:17:30.377Z,3.12
2019-05-19T14:20:01.841Z,3.55
2019-05-19T14:22:32.359Z,3.62
2019-05-19T14:25:02.785Z,3.95
2019-05-19T14:27:33.211Z,3.65
2019-05-19T14:30:05.319Z,3.08
2019-05-19T14:32:35.955Z,2.92
2019-05-19T14:35:07.024Z,3.67
2019-05-19T14:37:37.479Z,3.35
2019-05-19T14:40:09.180Z,2.87
2019-05-19T14:42:47.447Z,3.30
2019-05-19T14:45:19.352Z,2.95
2019-05-19T14:47:49.842Z,3.80
2019-05-19T14:50:20.667Z,3.42
2019-05-19T14:52:51.100Z,2.95
2019-05-19T14:55:22.757Z,3.05
2019-05-19T14:57:53.182Z,3.85
2019-05-19T15:00:23.861Z,3.12
2019-05-19T15:02:54.499Z,3.33
2019-05-19T15:05:24.977Z,3.10
2019-05-19T15:07:55.447Z,3.20
2019-05-19T15:10:25.932Z,3.27
2019-05-19T15:12:56.359Z,2.70
2019-05-19T15:15:26.776Z,2.25
2019-05-19T15:17:57.213Z,2.45
2019-05-19T15:20:27.651Z,2.15
2019-05-19T15:22:58.499Z,2.12
2019-05-19T15:25:28.906Z,2.47
2019-05-19T15:28:01.533Z,2.50
2019-05-19T15:30:32.412Z,2.45
2019-05-19T15:33:02.901Z,2.60
2019-05-19T15:35:33.418Z,3.00
2019-05-19T15:38:03.905Z,3.37
2019-05-19T15:40:34.332Z,3.50
2019-05-19T15:43:04.752Z,3.58
2019-05-19T15:45:35.194Z,3.60
2019-05-19T15:48:05.613Z,4.35
2019-05-19T15:50:36.042Z,4.50
2019-05-19T15:53:06.468Z,4.80
2019-05-19T15:55:36.894Z,5.22
2019-05-19T15:58:16.069Z,4.90
2019-05-19T16:00:39.430Z,5.92
2019-05-19T16:03:10.191Z,7.00
2019-05-19T16:05:40.720Z,7.05
2019-05-19T16:08:11.178Z,6.85
2019-05-19T16:10:41.615Z,6.57
2019-05-19T16:13:12.038Z,7.30
2019-05-19T16:15:42.518Z,6.83
2019-05-19T16:18:12.990Z,7.00
2019-05-19T16:20:44.444Z,7.50
2019-05-19T16:23:16.197Z,6.90
2019-05-19T16:25:46.632Z,6.50
2019-05-19T16:28:29.953Z,7.27
2019-05-19T16:30:50.246Z,7.43
2019-05-19T16:33:22.260Z,7.67
2019-05-19T16:35:52.787Z,6.90
2019-05-19T16:38:23.319Z,7.70
2019-05-19T16:40:53.917Z,7.60
2019-05-19T16:43:24.499Z,8.20
2019-05-19T16:45:54.947Z,8.33
2019-05-19T16:48:25.386Z,7.97
2019-05-19T16:50:55.913Z,7.60
2019-05-19T16:53:26.339Z,7.90
2019-05-19T16:55:56.760Z,7.50
2019-05-19T16:58:27.193Z,7.13
2019-05-19T17:00:59.025Z,6.97
2019-05-19T17:03:29.550Z,5.73
2019-05-19T17:06:00.066Z,5.30
2019-05-19T17:08:30.839Z,5.27
2019-05-19T17:11:01.276Z,6.03
2019-05-19T17:13:31.690Z,6.77
2019-05-19T17:16:02.166Z,7.10
2019-05-19T17:18:33.990Z,6.50
2019-05-19T17:21:04.517Z,7.13
2019-05-19T17:23:34.946Z,6.63
2019-05-19T17:26:05.473Z,7.70
2019-05-19T17:28:35.903Z,7.87
2019-05-19T17:31:07.875Z,7.20
2019-05-19T17:33:38.396Z,6.00
2019-05-19T17:36:09.026Z,7.43
2019-05-19T17:38:39.452Z,8.57
2019-05-19T17:41:10.963Z,6.90
2019-05-19T17:43:41.432Z,7.73
2019-05-19T17:46:11.876Z,7.00
2019-05-19T17:48:42.502Z,8.00
2019-05-19T17:51:13.067Z,7.60
2019-05-19T17:53:43.763Z,8.53
2019-05-19T17:56:16.119Z,8.20
2019-05-19T17:58:47.167Z,7.73
2019-05-19T18:01:16.782Z,7.47
2019-05-19T18:03:47.559Z,7.83
2019-05-19T18:06:18.190Z,7.47
2019-05-19T18:08:48.807Z,7.40
2019-05-19T18:11:19.313Z,7.70
2019-05-19T18:13:49.752Z,7.50
2019-05-19T18:16:20.156Z,7.70
2019-05-19T18:18:50.593Z,7.53
2019-05-19T18:21:21.216Z,8.70
2019-05-19T18:23:51.866Z,8.27
2019-05-19T18:26:22.342Z,7.77
2019-05-19T18:28:52.804Z,6.87
2019-05-19T18:31:24.256Z,7.23
2019-05-19T18:33:54.682Z,7.03
2019-05-19T18:36:25.111Z,7.97
2019-05-19T18:38:55.640Z,8.03
2019-05-19T18:41:26.273Z,8.37
2019-05-19T18:43:56.842Z,8.37
2019-05-19T18:46:27.357Z,7.47
2019-05-19T18:48:57.773Z,8.30
2019-05-19T18:51:28.556Z,9.17
2019-05-19T18:53:59.025Z,8.60
2019-05-19T18:56:29.679Z,8.50
2019-05-19T18:59:00.288Z,8.50
2019-05-19T19:01:31.782Z,8.07
2019-05-19T19:04:02.481Z,8.20
2019-05-19T19:06:33.818Z,8.53
2019-05-19T19:09:04.516Z,8.67
2019-05-19T19:11:34.984Z,8.93
2019-05-19T19:14:05.619Z,9.63
2019-05-19T19:16:37.094Z,10.57
2019-05-19T19:19:07.590Z,9.00
2019-05-19T19:21:39.144Z,9.40
2019-05-19T19:24:09.784Z,10.03
2019-05-19T19:26:40.393Z,10.10
2019-05-19T19:29:10.835Z,9.97
2019-05-19T19:31:48.657Z,9.67
2019-05-19T19:34:14.759Z,9.03
2019-05-19T19:36:45.323Z,10.33
2019-05-19T19:39:15.836Z,9.70
2019-05-19T19:41:46.463Z,10.47
2019-05-19T19:44:16.883Z,9.53
2019-05-19T19:46:47.351Z,11.10
2019-05-19T19:49:17.913Z,10.80
2019-05-19T19:51:48.774Z,12.47
2019-05-19T19:54:19.204Z,10.93
2019-05-19T19:56:50.755Z,12.50
2019-05-19T19:59:21.257Z,11.63
2019-05-19T20:01:51.846Z,12.00
2019-05-19T20:04:22.521Z,11.70
2019-05-19T20:06:53.652Z,12.23
2019-05-19T20:09:24.118Z,12.67
2019-05-19T20:11:54.548Z,12.87
2019-05-19T20:14:25.295Z,13.83
2019-05-19T20:16:55.826Z,13.40
2019-05-19T20:19:26.513Z,13.30
2019-05-19T20:21:59.836Z,13.50
2019-05-19T20:24:30.277Z,13.47
2019-05-19T20:27:00.745Z,14.30
2019-05-19T20:29:31.221Z,14.03
2019-05-19T20:32:02.306Z,14.83
2019-05-19T20:34:32.797Z,15.60
2019-05-19T20:37:03.328Z,16.63
2019-05-19T20:39:35.022Z,16.00
2019-05-19T20:42:05.628Z,16.67
2019-05-19T20:44:36.351Z,17.10
2019-05-19T20:47:06.790Z,16.40
2019-05-19T20:49:37.348Z,17.07
2019-05-19T20:52:07.859Z,19.07
2019-05-19T20:54:38.286Z,16.97
2019-05-19T20:57:08.687Z,18.60
2019-05-19T20:59:39.221Z,18.63
2019-05-19T21:02:09.635Z,17.27
2019-05-19T21:04:40.129Z,18.70
2019-05-19T21:07:10.749Z,18.53
2019-05-19T21:09:41.225Z,20.07
2019-05-19T21:12:11.651Z,19.47
2019-05-19T21:14:43.262Z,18.70
2019-05-19T21:17:13.743Z,19.20
2019-05-19T21:19:46.005Z,18.60
2019-05-19T21:22:16.440Z,20.17
2019-05-19T21:24:46.872Z,20.43
2019-05-19T21:27:17.287Z,19.40
2019-05-19T21:29:48.948Z,20.47
2019-05-19T21:32:19.394Z,19.63
2019-05-19T21:34:49.807Z,19.43
2019-05-19T21:37:20.226Z,19.87
2019-05-19T21:39:50.860Z,20.67
2019-05-19T21:42:21.487Z,19.03
2019-05-19T21:44:52.118Z,20.80
2019-05-19T21:47:25.617Z,19.43
2019-05-19T21:49:56.202Z,20.30
2019-05-19T21:52:26.682Z,20.90
2019-05-19T21:54:57.418Z,19.50
2019-05-19T21:57:27.844Z,20.23
2019-05-19T21:59:59.293Z,20.30
2019-05-19T22:02:29.718Z,21.60
2019-05-19T22:05:01.633Z,20.00
2019-05-19T22:07:52.379Z,19.13
2019-05-19T22:10:23.014Z,20.33
2019-05-19T22:12:53.644Z,19.13
2019-05-19T22:15:24.277Z,18.07
2019-05-19T22:17:54.911Z,19.73
2019-05-19T22:20:25.522Z,18.50
2019-05-19T22:22:55.972Z,18.67
2019-05-19T22:25:26.497Z,19.13
2019-05-19T22:27:56.923Z,18.27
2019-05-19T22:30:28.422Z,18.90
2019-05-19T22:32:58.809Z,18.37
2019-05-19T22:35:29.239Z,18.43
2019-05-19T22:37:59.663Z,18.00
2019-05-19T22:40:30.189Z,18.00
2019-05-19T22:43:00.617Z,17.37
2019-05-19T22:45:31.038Z,18.67
2019-05-19T22:48:01.464Z,17.50
2019-05-19T22:50:32.918Z,18.17
2019-05-19T22:53:03.467Z,16.90
2019-05-19T22:55:33.875Z,16.93
2019-05-19T22:58:04.305Z,16.67
2019-05-19T23:00:34.832Z,16.50
2019-05-19T23:03:05.357Z,14.53
2019-05-19T23:05:35.848Z,17.33
2019-05-19T23:08:06.443Z,15.17
2019-05-19T23:10:36.955Z,14.60
2019-05-19T23:13:08.372Z,15.77
2019-05-19T23:15:39.244Z,15.93
2019-05-19T23:18:09.660Z,13.87
2019-05-19T23:20:40.090Z,13.67
2019-05-19T23:23:10.518Z,14.47
2019-05-19T23:25:40.989Z,15.10
2019-05-19T23:28:11.471Z,14.37
2019-05-19T23:30:42.926Z,13.77
2019-05-19T23:33:13.400Z,13.37
2019-05-19T23:35:43.894Z,12.87
2019-05-19T23:38:14.410Z,13.13
2019-05-19T23:40:44.996Z,12.47
2019-05-19T23:43:15.480Z,12.60
2019-05-19T23:45:45.894Z,11.70
2019-05-19T23:48:16.523Z,12.57
2019-05-19T23:50:46.951Z,12.13
2019-05-19T23:53:17.383Z,12.20
2019-05-19T23:55:47.862Z,12.30
2019-05-19T23:58:18.336Z,12.07
